PWSweather.com
Personal Weather Stations
Station Observations
IBELLARIA2
Riviera Adriatica, Bellaria Igea MarinaIT 47814

Riviera AdriaticaBellaria Igea MarinaIT 47814

Lat: 44.1481151, Lon: 12.4594771

Elevation: 15

Station Type: DAVIS Vantage PRO2

http://www.bellariameteo.it

Latest ConditionsUpdated 8:05:06 AM GMT+01:01 Tuesday, Jun 27, 2017
Currently Today's Max Today's Min Today's Average
Temperature 75.4°F24.1°C 78.9°F26.1°C 71.9°F22.2°C 75.3°F24.1°C
Dew Point 69.5°F20.8°C 71.5°F21.9°C 66.4°F19.1°C 68.5°F20.3°C
Winds 7.0 mph WSW11.3 kmh WSW 10.0 mph E16.1 kmh E - 3.2 mph 5.1 kmh
Wind Gusts 12.0 mph19.3 kmh 15.0 mph24.1 kmh - -
Humidity 82% 86% 72% 80%
Pressure 29.81 in1009.5 mb 29.82 in1009.8 mb 29.77 in1008.1 mb -
Hour Temp Dew Point Humidity Winds Wind Gusts Pressure Precip Precip Rate Daily Precip Total
08:05 AM 75.4°F24.1°C 69.5°F20.8°C 82% 7.0 mph WSW11.3 kmh WSW 12.0 mph19.3 kmh 29.81 in1009.5 mb 0.00 in0.0 mm 0.00 in0.0 mm 0.00 in0.0 mm
08:00 AM 75.4°F24.1°C 69.5°F20.8°C 82% 4.0 mph WNW6.4 kmh WNW 11.0 mph17.7 kmh 29.80 in1009.1 mb 0.00 in0.0 mm 0.00 in0.0 mm 0.00 in0.0 mm
07:55 AM 75.3°F24.1°C 69.4°F20.8°C 82% 8.0 mph NW12.9 kmh NW 13.0 mph20.9 kmh 29.79 in1008.8 mb 0.00 in0.0 mm 0.00 in0.0 mm 0.00 in0.0 mm
07:50 AM 75.2°F24.0°C 69.3°F20.7°C 82% 6.0 mph WNW9.7 kmh WNW 12.0 mph19.3 kmh 29.80 in1009.1 mb 0.00 in0.0 mm 0.00 in0.0 mm 0.00 in0.0 mm
07:45 AM 75.1°F23.9°C 69.5°F20.8°C 83% 10.0 mph NW16.1 kmh NW 10.0 mph16.1 kmh 29.80 in1009.1 mb 0.00 in0.0 mm 0.00 in0.0 mm 0.00 in0.0 mm
07:40 AM 74.8°F23.8°C 69.6°F20.9°C 84% 7.0 mph NW11.3 kmh NW 12.0 mph19.3 kmh 29.80 in1009.1 mb 0.00 in0.0 mm 0.00 in0.0 mm 0.00 in0.0 mm
07:35 AM 74.4°F23.6°C 69.2°F20.7°C 84% 2.0 mph NW3.2 kmh NW 12.0 mph19.3 kmh 29.80 in1009.1 mb 0.00 in0.0 mm 0.00 in0.0 mm 0.00 in0.0 mm
07:30 AM 74.2°F23.4°C 69.0°F20.6°C 84% 8.0 mph WSW12.9 kmh WSW 10.0 mph16.1 kmh 29.80 in1009.1 mb 0.00 in0.0 mm 0.00 in0.0 mm 0.00 in0.0 mm
07:25 AM 74.0°F23.3°C 69.1°F20.6°C 85% 2.0 mph W3.2 kmh W 10.0 mph16.1 kmh 29.80 in1009.1 mb 0.00 in0.0 mm 0.00 in0.0 mm 0.00 in0.0 mm
07:20 AM 73.9°F23.3°C 69.0°F20.6°C 85% 8.0 mph NW12.9 kmh NW 11.0 mph17.7 kmh 29.80 in1009.1 mb 0.00 in0.0 mm 0.00 in0.0 mm 0.00 in0.0 mm
07:15 AM 73.7°F23.2°C 68.8°F20.4°C 85% 4.0 mph SW6.4 kmh SW 9.0 mph14.5 kmh 29.80 in1009.1 mb 0.00 in0.0 mm 0.00 in0.0 mm 0.00 in0.0 mm
07:10 AM 73.5°F23.1°C 68.7°F20.4°C 85% 7.0 mph NW11.3 kmh NW 10.0 mph16.1 kmh 29.80 in1009.1 mb 0.00 in0.0 mm 0.00 in0.0 mm 0.00 in0.0 mm
07:05 AM 73.4°F23.0°C 68.9°F20.5°C 86% 6.0 mph NW9.7 kmh NW 7.0 mph11.3 kmh 29.80 in1009.1 mb 0.00 in0.0 mm 0.00 in0.0 mm 0.00 in0.0 mm
07:00 AM 73.2°F22.9°C 68.7°F20.4°C 86% 4.0 mph W6.4 kmh W 8.0 mph12.9 kmh 29.80 in1009.1 mb 0.00 in0.0 mm 0.00 in0.0 mm 0.00 in0.0 mm
06:55 AM 73.0°F22.8°C 68.5°F20.3°C 86% 3.0 mph WNW4.8 kmh WNW 9.0 mph14.5 kmh 29.79 in1008.8 mb 0.00 in0.0 mm 0.00 in0.0 mm 0.00 in0.0 mm
06:50 AM 73.1°F22.8°C 68.6°F20.3°C 86% 6.0 mph W9.7 kmh W 12.0 mph19.3 kmh 29.80 in1009.1 mb 0.00 in0.0 mm 0.00 in0.0 mm 0.00 in0.0 mm
06:45 AM 73.1°F22.8°C 68.6°F20.3°C 86% 2.0 mph W3.2 kmh W 4.0 mph6.4 kmh 29.78 in1008.5 mb 0.00 in0.0 mm 0.00 in0.0 mm 0.00 in0.0 mm
06:40 AM 73.1°F22.8°C 68.6°F20.3°C 86% Calm Calm 3.0 mph4.8 kmh 29.78 in1008.5 mb 0.00 in0.0 mm 0.00 in0.0 mm 0.00 in0.0 mm
06:35 AM 73.0°F22.8°C 68.2°F20.1°C 85% Calm Calm 2.0 mph3.2 kmh 29.78 in1008.5 mb 0.00 in0.0 mm 0.00 in0.0 mm 0.00 in0.0 mm
06:30 AM 72.9°F22.7°C 68.1°F20.1°C 85% 2.0 mph NW3.2 kmh NW 5.0 mph8.0 kmh 29.78 in1008.5 mb 0.00 in0.0 mm 0.00 in0.0 mm 0.00 in0.0 mm
06:25 AM 72.9°F22.7°C 68.1°F20.1°C 85% 3.0 mph NW4.8 kmh NW 9.0 mph14.5 kmh 29.79 in1008.8 mb 0.00 in0.0 mm 0.00 in0.0 mm 0.00 in0.0 mm
06:20 AM 73.0°F22.8°C 67.8°F19.9°C 84% 6.0 mph WNW9.7 kmh WNW 9.0 mph14.5 kmh 29.80 in1009.1 mb 0.00 in0.0 mm 0.00 in0.0 mm 0.00 in0.0 mm
06:15 AM 73.0°F22.8°C 67.8°F19.9°C 84% 3.0 mph W4.8 kmh W 7.0 mph11.3 kmh 29.80 in1009.1 mb 0.00 in0.0 mm 0.00 in0.0 mm 0.00 in0.0 mm
06:10 AM 72.9°F22.7°C 67.7°F19.8°C 84% 5.0 mph W8.0 kmh W 7.0 mph11.3 kmh 29.80 in1009.1 mb 0.00 in0.0 mm 0.00 in0.0 mm 0.00 in0.0 mm
06:05 AM 72.9°F22.7°C 67.7°F19.8°C 84% 4.0 mph W6.4 kmh W 6.0 mph9.7 kmh 29.80 in1009.1 mb 0.00 in0.0 mm 0.00 in0.0 mm 0.00 in0.0 mm
06:00 AM 72.7°F22.6°C 67.2°F19.6°C 83% 4.0 mph SW6.4 kmh SW 8.0 mph12.9 kmh 29.79 in1008.8 mb 0.00 in0.0 mm 0.00 in0.0 mm 0.00 in0.0 mm
05:55 AM 72.7°F22.6°C 67.2°F19.6°C 83% 7.0 mph SW11.3 kmh SW 9.0 mph14.5 kmh 29.79 in1008.8 mb 0.00 in0.0 mm 0.00 in0.0 mm 0.00 in0.0 mm
05:50 AM 72.7°F22.6°C 67.2°F19.6°C 83% 3.0 mph W4.8 kmh W 8.0 mph12.9 kmh 29.79 in1008.8 mb 0.00 in0.0 mm 0.00 in0.0 mm 0.00 in0.0 mm
05:45 AM 72.7°F22.6°C 67.2°F19.6°C 83% 3.0 mph WNW4.8 kmh WNW 8.0 mph12.9 kmh 29.79 in1008.8 mb 0.00 in0.0 mm 0.00 in0.0 mm 0.00 in0.0 mm
05:40 AM 72.7°F22.6°C 67.2°F19.6°C 83% Calm Calm 7.0 mph11.3 kmh 29.78 in1008.5 mb 0.00 in0.0 mm 0.00 in0.0 mm 0.00 in0.0 mm
05:35 AM 72.6°F22.6°C 67.1°F19.5°C 83% 5.0 mph WNW8.0 kmh WNW 10.0 mph16.1 kmh 29.78 in1008.5 mb 0.00 in0.0 mm 0.00 in0.0 mm 0.00 in0.0 mm
05:30 AM 72.5°F22.5°C 67.3°F19.6°C 84% 3.0 mph WNW4.8 kmh WNW 8.0 mph12.9 kmh 29.79 in1008.8 mb 0.00 in0.0 mm 0.00 in0.0 mm 0.00 in0.0 mm
05:25 AM 72.4°F22.4°C 67.2°F19.6°C 84% 5.0 mph WNW8.0 kmh WNW 8.0 mph12.9 kmh 29.79 in1008.8 mb 0.00 in0.0 mm 0.00 in0.0 mm 0.00 in0.0 mm
05:20 AM 72.2°F22.3°C 67.0°F19.4°C 84% 5.0 mph W8.0 kmh W 8.0 mph12.9 kmh 29.78 in1008.5 mb 0.00 in0.0 mm 0.00 in0.0 mm 0.00 in0.0 mm
05:15 AM 72.2°F22.3°C 67.0°F19.4°C 84% 3.0 mph WNW4.8 kmh WNW 8.0 mph12.9 kmh 29.79 in1008.8 mb 0.00 in0.0 mm 0.00 in0.0 mm 0.00 in0.0 mm
05:10 AM 72.0°F22.2°C 66.8°F19.3°C 84% 5.0 mph W8.0 kmh W 8.0 mph12.9 kmh 29.78 in1008.5 mb 0.00 in0.0 mm 0.00 in0.0 mm 0.00 in0.0 mm
05:05 AM 71.9°F22.2°C 66.7°F19.3°C 84% 6.0 mph W9.7 kmh W 8.0 mph12.9 kmh 29.78 in1008.5 mb 0.00 in0.0 mm 0.00 in0.0 mm 0.00 in0.0 mm
05:00 AM 72.0°F22.2°C 66.5°F19.2°C 83% 4.0 mph W6.4 kmh W 6.0 mph9.7 kmh 29.78 in1008.5 mb 0.00 in0.0 mm 0.00 in0.0 mm 0.00 in0.0 mm
04:55 AM 72.2°F22.3°C 66.7°F19.3°C 83% 2.0 mph W3.2 kmh W 5.0 mph8.0 kmh 29.78 in1008.5 mb 0.00 in0.0 mm 0.00 in0.0 mm 0.00 in0.0 mm
04:50 AM 72.3°F22.4°C 66.8°F19.3°C 83% 4.0 mph W6.4 kmh W 5.0 mph8.0 kmh 29.78 in1008.5 mb 0.00 in0.0 mm 0.00 in0.0 mm 0.00 in0.0 mm
04:45 AM 72.4°F22.4°C 66.5°F19.2°C 82% Calm Calm 5.0 mph8.0 kmh 29.78 in1008.5 mb 0.00 in0.0 mm 0.00 in0.0 mm 0.00 in0.0 mm
04:40 AM 72.7°F22.6°C 66.8°F19.3°C 82% 2.0 mph WSW3.2 kmh WSW 4.0 mph6.4 kmh 29.78 in1008.5 mb 0.00 in0.0 mm 0.00 in0.0 mm 0.00 in0.0 mm
04:35 AM 72.8°F22.7°C 66.6°F19.2°C 81% 1.0 mph W1.6 kmh W 3.0 mph4.8 kmh 29.78 in1008.5 mb 0.00 in0.0 mm 0.00 in0.0 mm 0.00 in0.0 mm
04:30 AM 72.9°F22.7°C 66.7°F19.3°C 81% Calm Calm 3.0 mph4.8 kmh 29.78 in1008.5 mb 0.00 in0.0 mm 0.00 in0.0 mm 0.00 in0.0 mm
04:25 AM 73.2°F22.9°C 66.6°F19.2°C 80% Calm Calm 1.0 mph1.6 kmh 29.78 in1008.5 mb 0.00 in0.0 mm 0.00 in0.0 mm 0.00 in0.0 mm
04:20 AM 73.4°F23.0°C 66.8°F19.3°C 80% Calm Calm 1.0 mph1.6 kmh 29.78 in1008.5 mb 0.00 in0.0 mm 0.00 in0.0 mm 0.00 in0.0 mm
04:15 AM 73.5°F23.1°C 66.9°F19.4°C 80% Calm Calm -- 29.78 in1008.5 mb 0.00 in0.0 mm 0.00 in0.0 mm 0.00 in0.0 mm
04:10 AM 73.7°F23.2°C 66.7°F19.3°C 79% Calm Calm 1.0 mph1.6 kmh 29.78 in1008.5 mb 0.00 in0.0 mm 0.00 in0.0 mm 0.00 in0.0 mm
04:05 AM 73.9°F23.3°C 66.9°F19.4°C 79% Calm Calm 2.0 mph3.2 kmh 29.78 in1008.5 mb 0.00 in0.0 mm 0.00 in0.0 mm 0.00 in0.0 mm
04:00 AM 74.0°F23.3°C 66.6°F19.2°C 78% Calm Calm 2.0 mph3.2 kmh 29.78 in1008.5 mb 0.00 in0.0 mm 0.00 in0.0 mm 0.00 in0.0 mm
03:55 AM 74.3°F23.5°C 66.9°F19.4°C 78% 1.0 mph WSW1.6 kmh WSW 2.0 mph3.2 kmh 29.78 in1008.5 mb 0.00 in0.0 mm 0.00 in0.0 mm 0.00 in0.0 mm
03:50 AM 74.5°F23.6°C 67.1°F19.5°C 78% Calm Calm 1.0 mph1.6 kmh 29.78 in1008.5 mb 0.00 in0.0 mm 0.00 in0.0 mm 0.00 in0.0 mm
03:45 AM 74.5°F23.6°C 67.1°F19.5°C 78% Calm Calm 1.0 mph1.6 kmh 29.78 in1008.5 mb 0.00 in0.0 mm 0.00 in0.0 mm 0.00 in0.0 mm
03:40 AM 74.5°F23.6°C 66.8°F19.3°C 77% Calm Calm -- 29.78 in1008.5 mb 0.00 in0.0 mm 0.00 in0.0 mm 0.00 in0.0 mm
03:35 AM 74.7°F23.7°C 66.6°F19.2°C 76% Calm Calm 1.0 mph1.6 kmh 29.78 in1008.5 mb 0.00 in0.0 mm 0.00 in0.0 mm 0.00 in0.0 mm
03:30 AM 75.1°F23.9°C 67.0°F19.4°C 76% Calm Calm 1.0 mph1.6 kmh 29.77 in1008.1 mb 0.00 in0.0 mm 0.00 in0.0 mm 0.00 in0.0 mm
03:25 AM 75.3°F24.1°C 67.1°F19.5°C 76% Calm Calm 2.0 mph3.2 kmh 29.78 in1008.5 mb 0.00 in0.0 mm 0.00 in0.0 mm 0.00 in0.0 mm
03:20 AM 75.6°F24.2°C 67.4°F19.7°C 76% Calm Calm -- 29.78 in1008.5 mb 0.00 in0.0 mm 0.00 in0.0 mm 0.00 in0.0 mm
03:15 AM 76.0°F24.4°C 67.4°F19.7°C 75% Calm Calm 2.0 mph3.2 kmh 29.78 in1008.5 mb 0.00 in0.0 mm 0.00 in0.0 mm 0.00 in0.0 mm
03:10 AM 76.6°F24.8°C 68.4°F20.2°C 76% Calm Calm -- 29.78 in1008.5 mb 0.00 in0.0 mm 0.00 in0.0 mm 0.00 in0.0 mm
03:05 AM 77.2°F25.1°C 69.0°F20.6°C 76% Calm Calm 1.0 mph1.6 kmh 29.78 in1008.5 mb 0.00 in0.0 mm 0.00 in0.0 mm 0.00 in0.0 mm
03:00 AM 78.3°F25.7°C 70.8°F21.6°C 78% Calm Calm 7.0 mph11.3 kmh 29.78 in1008.5 mb 0.00 in0.0 mm 0.00 in0.0 mm 0.00 in0.0 mm
02:55 AM 78.6°F25.9°C 71.5°F21.9°C 79% 2.0 mph SE3.2 kmh SE 12.0 mph19.3 kmh 29.78 in1008.5 mb 0.00 in0.0 mm 0.00 in0.0 mm 0.00 in0.0 mm
02:50 AM 78.5°F25.8°C 71.0°F21.7°C 78% 6.0 mph SE9.7 kmh SE 9.0 mph14.5 kmh 29.77 in1008.1 mb 0.00 in0.0 mm 0.00 in0.0 mm 0.00 in0.0 mm
02:45 AM 78.6°F25.9°C 71.1°F21.7°C 78% 7.0 mph E11.3 kmh E 8.0 mph12.9 kmh 29.77 in1008.1 mb 0.00 in0.0 mm 0.00 in0.0 mm 0.00 in0.0 mm
02:40 AM 78.6°F25.9°C 70.7°F21.5°C 77% Calm Calm 9.0 mph14.5 kmh 29.78 in1008.5 mb 0.00 in0.0 mm 0.00 in0.0 mm 0.00 in0.0 mm
02:35 AM 78.6°F25.9°C 70.7°F21.5°C 77% 2.0 mph E3.2 kmh E 10.0 mph16.1 kmh 29.78 in1008.5 mb 0.00 in0.0 mm 0.00 in0.0 mm 0.00 in0.0 mm
02:30 AM 78.7°F25.9°C 70.8°F21.6°C 77% 6.0 mph SE9.7 kmh SE 11.0 mph17.7 kmh 29.78 in1008.5 mb 0.00 in0.0 mm 0.00 in0.0 mm 0.00 in0.0 mm
02:25 AM 78.7°F25.9°C 70.8°F21.6°C 77% 2.0 mph SE3.2 kmh SE 12.0 mph19.3 kmh 29.78 in1008.5 mb 0.00 in0.0 mm 0.00 in0.0 mm 0.00 in0.0 mm
02:20 AM 78.8°F26.0°C 70.9°F21.6°C 77% 6.0 mph ESE9.7 kmh ESE 9.0 mph14.5 kmh 29.78 in1008.5 mb 0.00 in0.0 mm 0.00 in0.0 mm 0.00 in0.0 mm
02:15 AM 78.8°F26.0°C 70.9°F21.6°C 77% 7.0 mph SE11.3 kmh SE 9.0 mph14.5 kmh 29.78 in1008.5 mb 0.00 in0.0 mm 0.00 in0.0 mm 0.00 in0.0 mm
02:10 AM 78.9°F26.1°C 71.0°F21.7°C 77% 2.0 mph SE3.2 kmh SE 9.0 mph14.5 kmh 29.78 in1008.5 mb 0.00 in0.0 mm 0.00 in0.0 mm 0.00 in0.0 mm
02:05 AM 78.8°F26.0°C 70.9°F21.6°C 77% 2.0 mph SE3.2 kmh SE 12.0 mph19.3 kmh 29.78 in1008.5 mb 0.00 in0.0 mm 0.00 in0.0 mm 0.00 in0.0 mm
02:00 AM 78.8°F26.0°C 70.9°F21.6°C 77% 7.0 mph ESE11.3 kmh ESE 9.0 mph14.5 kmh 29.78 in1008.5 mb 0.00 in0.0 mm 0.00 in0.0 mm 0.00 in0.0 mm
01:55 AM 78.8°F26.0°C 70.9°F21.6°C 77% 8.0 mph ESE12.9 kmh ESE 11.0 mph17.7 kmh 29.79 in1008.8 mb 0.00 in0.0 mm 0.00 in0.0 mm 0.00 in0.0 mm
01:50 AM 78.9°F26.1°C 71.0°F21.7°C 77% 6.0 mph ESE9.7 kmh ESE 8.0 mph12.9 kmh 29.79 in1008.8 mb 0.00 in0.0 mm 0.00 in0.0 mm 0.00 in0.0 mm
01:45 AM 78.9°F26.1°C 71.0°F21.7°C 77% 4.0 mph SE6.4 kmh SE 11.0 mph17.7 kmh 29.78 in1008.5 mb 0.00 in0.0 mm 0.00 in0.0 mm 0.00 in0.0 mm
01:40 AM 78.9°F26.1°C 71.0°F21.7°C 77% 2.0 mph E3.2 kmh E 11.0 mph17.7 kmh 29.78 in1008.5 mb 0.00 in0.0 mm 0.00 in0.0 mm 0.00 in0.0 mm
01:35 AM 78.9°F26.1°C 71.0°F21.7°C 77% 4.0 mph ESE6.4 kmh ESE 12.0 mph19.3 kmh 29.78 in1008.5 mb 0.00 in0.0 mm 0.00 in0.0 mm 0.00 in0.0 mm
01:30 AM 78.9°F26.1°C 71.0°F21.7°C 77% 8.0 mph ESE12.9 kmh ESE 11.0 mph17.7 kmh 29.78 in1008.5 mb 0.00 in0.0 mm 0.00 in0.0 mm 0.00 in0.0 mm
01:25 AM 78.9°F26.1°C 71.0°F21.7°C 77% 6.0 mph ESE9.7 kmh ESE 15.0 mph24.1 kmh 29.77 in1008.1 mb 0.00 in0.0 mm 0.00 in0.0 mm 0.00 in0.0 mm
01:20 AM 78.8°F26.0°C 70.9°F21.6°C 77% 7.0 mph E11.3 kmh E 14.0 mph22.5 kmh 29.78 in1008.5 mb 0.00 in0.0 mm 0.00 in0.0 mm 0.00 in0.0 mm
01:15 AM 78.5°F25.8°C 69.8°F21.0°C 75% 10.0 mph E16.1 kmh E 12.0 mph19.3 kmh 29.78 in1008.5 mb 0.00 in0.0 mm 0.00 in0.0 mm 0.00 in0.0 mm
01:10 AM 77.9°F25.5°C 69.7°F20.9°C 76% 7.0 mph ESE11.3 kmh ESE 7.0 mph11.3 kmh 29.78 in1008.5 mb 0.00 in0.0 mm 0.00 in0.0 mm 0.00 in0.0 mm
01:05 AM 77.2°F25.1°C 68.6°F20.3°C 75% 2.0 mph ESE3.2 kmh ESE 5.0 mph8.0 kmh 29.79 in1008.8 mb 0.00 in0.0 mm 0.00 in0.0 mm 0.00 in0.0 mm
01:00 AM 76.7°F24.8°C 67.3°F19.6°C 73% Calm Calm 4.0 mph6.4 kmh 29.79 in1008.8 mb 0.00 in0.0 mm 0.00 in0.0 mm 0.00 in0.0 mm
12:55 AM 76.4°F24.7°C 67.0°F19.4°C 73% Calm Calm 1.0 mph1.6 kmh 29.79 in1008.8 mb 0.00 in0.0 mm 0.00 in0.0 mm 0.00 in0.0 mm
12:50 AM 76.2°F24.6°C 66.4°F19.1°C 72% Calm Calm -- 29.80 in1009.1 mb 0.00 in0.0 mm 0.00 in0.0 mm 0.00 in0.0 mm
12:45 AM 76.3°F24.6°C 66.5°F19.2°C 72% Calm Calm -- 29.80 in1009.1 mb 0.00 in0.0 mm 0.00 in0.0 mm 0.00 in0.0 mm
12:40 AM 76.2°F24.6°C 66.8°F19.3°C 73% Calm Calm 1.0 mph1.6 kmh 29.80 in1009.1 mb 0.00 in0.0 mm 0.00 in0.0 mm 0.00 in0.0 mm
12:35 AM 76.2°F24.6°C 66.8°F19.3°C 73% Calm Calm 3.0 mph4.8 kmh 29.80 in1009.1 mb 0.00 in0.0 mm 0.00 in0.0 mm 0.00 in0.0 mm
12:30 AM 76.2°F24.6°C 66.8°F19.3°C 73% Calm Calm 1.0 mph1.6 kmh 29.81 in1009.5 mb 0.00 in0.0 mm 0.00 in0.0 mm 0.00 in0.0 mm
12:25 AM 76.5°F24.7°C 67.1°F19.5°C 73% Calm Calm 1.0 mph1.6 kmh 29.81 in1009.5 mb 0.00 in0.0 mm 0.00 in0.0 mm 0.00 in0.0 mm
12:20 AM 77.0°F25.0°C 67.2°F19.6°C 72% Calm Calm 4.0 mph6.4 kmh 29.81 in1009.5 mb 0.00 in0.0 mm 0.00 in0.0 mm 0.00 in0.0 mm
12:15 AM 78.4°F25.8°C 69.0°F20.6°C 73% 4.0 mph SW6.4 kmh SW 7.0 mph11.3 kmh 29.82 in1009.8 mb 0.00 in0.0 mm 0.00 in0.0 mm 0.00 in0.0 mm
12:10 AM 78.8°F26.0°C 69.7°F20.9°C 74% 4.0 mph SSE6.4 kmh SSE 9.0 mph14.5 kmh 29.81 in1009.5 mb 0.00 in0.0 mm 0.00 in0.0 mm 0.00 in0.0 mm
12:05 AM 78.7°F25.9°C 69.6°F20.9°C 74% 5.0 mph E8.0 kmh E 9.0 mph14.5 kmh 29.81 in1009.5 mb 0.00 in0.0 mm 0.00 in0.0 mm 0.00 in0.0 mm
12:00 AM 78.8°F26.0°C 69.7°F20.9°C 74% 7.0 mph ESE11.3 kmh ESE 7.0 mph11.3 kmh 29.81 in1009.5 mb 0.00 in0.0 mm 0.00 in0.0 mm 0.00 in0.0 mm